Time;durP1;ratioP1;P1;durP2;ratioP2;P2;SDS_P1;SDS_P2;PMS_P1;PMS_P2;Temp;Humidity;BMP_temperature;BMP_pressure;BME280_temperature;BME280_humidity;BME280_pressure;Samples;Min_cycle;Max_cycle;Signal;HPM_P1;HPM_P2
2022/12/27 00:01:34;;;;;;;0.60;0.60;;;5.60;96.40;4.70;96766.00;;;;5053536;28;20674;-57
2022/12/27 00:04:01;;;;;;;1.33;0.70;;;5.60;96.30;4.80;96752.00;;;;5053679;28;20552;-56
2022/12/27 00:06:30;;;;;;;1.00;1.00;;;5.60;96.00;4.80;96765.00;;;;5053465;28;20218;-56
2022/12/27 00:08:58;;;;;;;0.60;0.60;;;5.70;96.30;4.80;96756.00;;;;5053661;28;20613;-56
2022/12/27 00:11:28;;;;;;;0.60;0.60;;;5.70;93.10;4.80;96782.00;;;;5053380;28;20187;-56
2022/12/27 00:13:56;;;;;;;0.67;0.67;;;5.50;92.00;4.70;96787.00;;;;5053239;28;20215;-56
2022/12/27 00:16:23;;;;;;;0.57;0.57;;;5.60;92.80;4.50;96794.00;;;;5053534;28;20201;-56
2022/12/27 00:18:51;;;;;;;0.60;0.60;;;5.50;91.70;4.40;96775.00;;;;5053201;28;20238;-56
2022/12/27 00:21:20;;;;;;;0.60;0.60;;;5.20;89.70;4.30;96796.00;;;;5053219;28;20692;-56
2022/12/27 00:23:53;;;;;;;0.60;0.60;;;5.10;91.30;4.20;96811.00;;;;5035894;28;20227;-56
2022/12/27 00:26:23;;;;;;;0.60;0.60;;;5.10;91.10;4.20;96796.00;;;;5053166;28;20539;-56
2022/12/27 00:28:51;;;;;;;0.90;0.90;;;5.00;91.10;4.10;96793.00;;;;5053115;28;20690;-56
2022/12/27 00:31:20;;;;;;;0.67;0.67;;;5.00;92.30;4.00;96796.00;;;;5053133;28;20192;-56
2022/12/27 00:33:50;;;;;;;0.50;0.50;;;4.90;92.00;3.90;96805.00;;;;5053163;28;20578;-56
2022/12/27 00:36:21;;;;;;;0.70;0.70;;;4.80;91.00;3.90;96807.00;;;;5053199;28;20192;-57
2022/12/27 00:38:51;;;;;;;0.77;0.77;;;4.80;91.10;3.80;96812.00;;;;5052934;28;20528;-56
2022/12/27 00:41:19;;;;;;;0.60;0.60;;;4.70;89.70;3.80;96800.00;;;;5053547;28;20196;-57
2022/12/27 00:43:47;;;;;;;0.60;0.60;;;4.60;90.50;3.70;96801.00;;;;5052767;28;20717;-56
2022/12/27 00:46:14;;;;;;;0.60;0.60;;;4.60;90.20;3.60;96803.00;;;;5052970;28;20526;-56
2022/12/27 00:48:42;;;;;;;0.50;0.50;;;4.60;90.90;3.80;96810.00;;;;5052909;28;20188;-56
2022/12/27 00:51:14;;;;;;;0.60;0.60;;;4.60;90.60;3.60;96792.00;;;;5052953;28;20196;-56
2022/12/27 00:53:42;;;;;;;0.70;0.70;;;4.50;89.90;3.60;96811.00;;;;5052773;28;20220;-56
2022/12/27 00:56:15;;;;;;;0.60;0.60;;;4.60;91.50;3.70;96817.00;;;;5052881;28;20651;-56
2022/12/27 00:58:42;;;;;;;0.57;0.57;;;4.60;91.70;3.70;96822.00;;;;5053080;28;20184;-56
2022/12/27 01:01:13;;;;;;;1.33;1.23;;;4.60;91.40;3.70;96820.00;;;;5052844;28;20191;-56
2022/12/27 01:03:40;;;;;;;0.60;0.60;;;4.60;92.20;3.60;96825.00;;;;5052744;28;20216;-56
2022/12/27 01:06:10;;;;;;;1.03;1.03;;;4.50;90.80;3.70;96826.00;;;;5052816;28;20246;-57
2022/12/27 01:08:38;;;;;;;0.60;0.60;;;4.60;89.70;3.70;96829.00;;;;5053057;28;20177;-56
2022/12/27 01:11:07;;;;;;;0.50;0.50;;;4.50;89.10;3.60;96827.00;;;;5053000;28;20258;-56
2022/12/27 01:13:36;;;;;;;1.27;0.80;;;4.60;89.10;3.50;96821.00;;;;5052871;28;20651;-56
2022/12/27 01:16:09;;;;;;;0.80;0.80;;;4.50;88.80;3.50;96838.00;;;;5052704;28;20203;-57
2022/12/27 01:18:37;;;;;;;0.50;0.50;;;4.40;89.70;3.50;96834.00;;;;5052690;28;20176;-56
2022/12/27 01:21:07;;;;;;;2.20;1.07;;;4.40;87.00;3.40;96835.00;;;;5052906;28;20712;-57
2022/12/27 01:23:34;;;;;;;0.50;0.50;;;4.40;85.90;3.40;96835.00;;;;5052516;28;20208;-57
2022/12/27 01:26:02;;;;;;;0.70;0.70;;;4.30;86.80;3.40;96841.00;;;;5052587;28;20192;-56
2022/12/27 01:28:29;;;;;;;0.60;0.60;;;4.40;86.00;3.30;96846.00;;;;5052831;28;20192;-56
2022/12/27 01:30:58;;;;;;;0.70;0.70;;;4.40;87.50;3.30;96852.00;;;;5053358;28;20199;-56
2022/12/27 01:33:25;;;;;;;0.60;0.60;;;4.30;87.60;3.30;96858.00;;;;5052935;28;20278;-57
2022/12/27 01:35:52;;;;;;;0.80;0.80;;;4.30;86.30;3.50;96863.00;;;;5052981;28;20720;-56
2022/12/27 01:38:19;;;;;;;0.50;0.50;;;4.30;86.20;3.40;96864.00;;;;5052773;28;20199;-56
2022/12/27 01:40:46;;;;;;;0.70;0.70;;;4.40;86.40;3.30;96873.00;;;;5052486;28;20258;-56
2022/12/27 01:43:16;;;;;;;0.87;0.87;;;4.30;87.80;3.30;96874.00;;;;5052605;28;20277;-56
2022/12/27 01:45:46;;;;;;;1.40;1.33;;;4.30;88.30;3.30;96875.00;;;;5053039;28;20616;-56
2022/12/27 01:48:20;;;;;;;0.50;0.50;;;4.30;88.70;3.20;96870.00;;;;5052417;28;20192;-57
2022/12/27 01:50:51;;;;;;;0.47;0.47;;;4.30;88.70;3.20;96877.00;;;;5052592;28;20663;-56
2022/12/27 01:53:22;;;;;;;0.60;0.60;;;4.20;88.60;3.20;96881.00;;;;5055919;28;20222;-56
2022/12/27 01:55:54;;;;;;;0.60;0.60;;;4.20;89.20;3.20;96876.00;;;;5055887;28;20179;-56
2022/12/27 01:58:27;;;;;;;0.60;0.60;;;4.20;88.70;3.20;96879.00;;;;5056090;28;20210;-56
2022/12/27 02:00:56;;;;;;;1.30;1.30;;;4.20;88.60;3.00;96887.00;;;;5055985;28;20184;-57
2022/12/27 02:03:28;;;;;;;0.60;0.60;;;4.10;86.40;3.00;96882.00;;;;5055620;28;20216;-57
2022/12/27 02:05:57;;;;;;;0.63;0.63;;;4.00;86.70;2.90;96887.00;;;;5055743;28;20651;-56
2022/12/27 02:08:38;;;;;;;0.60;0.60;;;3.90;87.00;3.20;96891.00;;;;5055612;28;20597;-57
2022/12/27 02:11:07;;;;;;;1.00;1.00;;;4.10;86.90;3.00;96889.00;;;;5055785;28;20230;-59
2022/12/27 02:13:46;;;;;;;0.63;0.63;;;4.00;86.30;2.80;96879.00;;;;5055867;28;20537;-56
2022/12/27 02:16:17;;;;;;;0.70;0.70;;;3.80;87.50;2.60;96882.00;;;;5055465;28;20188;-56
2022/12/27 02:18:47;;;;;;;0.60;0.60;;;3.70;88.50;2.60;96890.00;;;;5055470;28;20173;-56
2022/12/27 02:22:14;;;;;;;0.60;0.60;;;3.80;88.30;3.00;96883.00;;;;5055408;28;20310;-57
2022/12/27 02:25:15;;;;;;;0.87;0.87;;;;;2.80;96903.00;;;;5055243;28;20192;-56
2022/12/27 02:28:07;;;;;;;0.50;0.50;;;3.70;87.30;2.80;96907.00;;;;5045016;28;20219;-56
2022/12/27 02:30:36;;;;;;;0.60;0.60;;;;;2.70;96900.00;;;;5055485;28;20196;-57
2022/12/27 02:33:11;;;;;;;0.80;0.80;;;3.80;86.80;3.00;96910.00;;;;5055254;28;20220;-56
2022/12/27 02:35:42;;;;;;;0.80;0.80;;;3.80;85.90;3.10;96915.00;;;;5055624;28;20306;-56
2022/12/27 02:38:15;;;;;;;0.60;0.60;;;3.90;84.70;3.20;96917.00;;;;5055063;28;20238;-56
2022/12/27 02:55:35;;;;;;;0.70;0.70;;;3.90;83.20;3.10;96917.00;;;;5054650;28;20246;-57
2022/12/27 02:58:25;;;;;;;0.70;0.70;;;3.90;84.30;2.70;96903.00;;;;5054693;28;20176;-56
2022/12/27 03:04:20;;;;;;;0.70;0.70;;;3.60;84.90;2.60;96932.00;;;;5054603;28;20544;-56
2022/12/27 03:07:12;;;;;;;0.60;0.60;;;3.60;83.20;2.70;96903.00;;;;5055101;28;20186;-56
2022/12/27 03:16:09;;;;;;;0.60;0.60;;;3.60;84.90;2.60;96907.00;;;;5054558;28;20210;-56
2022/12/27 03:18:54;;;;;;;0.60;0.60;;;;;2.60;96913.00;;;;5054829;28;20195;-56
2022/12/27 03:27:04;;;;;;;0.70;0.70;;;3.50;84.80;2.70;96922.00;;;;5054468;28;20534;-56
2022/12/27 03:35:19;;;;;;;0.60;0.60;;;3.50;84.80;2.50;96936.00;;;;5047084;28;20274;-56
2022/12/27 03:38:02;;;;;;;0.60;0.60;;;3.60;83.70;2.70;96934.00;;;;5054229;28;20176;-56
2022/12/27 03:43:31;;;;;;;0.50;0.50;;;3.40;85.30;2.60;96942.00;;;;5052741;28;20238;-56
2022/12/27 03:49:08;;;;;;;0.60;0.60;;;3.50;85.30;2.60;96936.00;;;;5053772;28;20180;-56
2022/12/27 03:51:41;;;;;;;0.80;0.80;;;3.40;86.40;2.50;96933.00;;;;5054469;28;20207;-56
2022/12/27 03:54:24;;;;;;;0.60;0.60;;;3.40;86.60;2.40;96934.00;;;;5053541;28;20215;-56
2022/12/27 03:56:54;;;;;;;1.80;1.27;;;3.40;87.00;2.50;96932.00;;;;5053631;28;20201;-56
2022/12/27 03:59:21;;;;;;;0.70;0.70;;;3.40;87.90;2.30;96932.00;;;;5053555;28;20192;-56
2022/12/27 04:01:48;;;;;;;0.60;0.60;;;3.30;88.20;2.30;96931.00;;;;5053499;28;20199;-56
2022/12/27 04:04:15;;;;;;;0.60;0.60;;;3.30;88.70;2.40;96943.00;;;;5053362;28;20311;-56
2022/12/27 04:06:42;;;;;;;1.00;1.00;;;3.30;88.30;2.50;96933.00;;;;5053407;28;20192;-56
2022/12/27 04:36:42;;;;;;;0.90;0.90;;;2.50;95.80;1.40;96933.00;;;;5053304;28;20184;-57
2022/12/27 04:39:09;;;;;;;0.70;0.70;;;2.40;96.50;1.40;96935.00;;;;5053314;28;20206;-57
2022/12/27 04:55:27;;;;;;;0.60;0.60;;;2.30;97.20;1.30;96933.00;;;;5053129;28;20565;-57
2022/12/27 04:57:57;;;;;;;0.70;0.70;;;2.30;97.10;1.40;96930.00;;;;5052793;28;20228;-56
2022/12/27 05:03:18;;;;;;;0.77;0.77;;;2.40;96.70;1.40;96931.00;;;;5052761;28;20333;-57
2022/12/27 05:05:46;;;;;;;0.60;0.60;;;2.40;96.30;1.40;96927.00;;;;5053091;28;20658;-56
2022/12/27 05:14:00;;;;;;;0.50;0.50;;;2.30;96.80;1.10;96947.00;;;;5052611;28;20218;-57
2022/12/27 05:16:27;;;;;;;0.70;0.70;;;2.20;97.10;1.20;96937.00;;;;5053051;28;20535;-56
2022/12/27 05:18:54;;;;;;;3.73;0.90;;;2.30;97.60;1.30;96945.00;;;;5053459;28;20195;-56
2022/12/27 05:21:22;;;;;;;0.60;0.60;;;2.30;97.70;1.30;96946.00;;;;5034774;28;20191;-56
2022/12/27 05:26:36;;;;;;;0.60;0.60;;;2.30;97.30;1.10;96958.00;;;;5055648;28;20226;-56
2022/12/27 05:29:06;;;;;;;0.60;0.60;;;2.20;97.50;1.20;96952.00;;;;5056682;28;20188;-56
2022/12/27 05:31:34;;;;;;;0.70;0.70;;;2.20;97.20;1.20;96952.00;;;;5039573;28;20656;-56
2022/12/27 05:34:01;;;;;;;0.63;0.63;;;2.20;97.20;1.30;96954.00;;;;5056143;28;20767;-56
2022/12/27 05:36:28;;;;;;;5.20;1.33;;;2.30;96.90;1.30;96959.00;;;;5056285;28;20191;-56
2022/12/27 05:38:55;;;;;;;0.60;0.60;;;2.20;96.90;1.40;96961.00;;;;5056453;28;20650;-57
2022/12/27 05:41:22;;;;;;;0.80;0.80;;;2.30;96.90;1.30;96953.00;;;;5056463;28;20253;-56
2022/12/27 05:43:49;;;;;;;1.40;1.13;;;2.20;96.50;1.20;96959.00;;;;5055994;28;20215;-56
2022/12/27 05:46:20;;;;;;;0.77;0.77;;;2.20;96.70;1.20;96968.00;;;;5056342;28;20195;-56
2022/12/27 05:48:48;;;;;;;0.80;0.80;;;2.20;96.80;1.20;96978.00;;;;5056045;28;20226;-56
2022/12/27 05:51:18;;;;;;;0.90;0.90;;;2.20;96.90;1.20;96977.00;;;;5055967;28;20191;-56
2022/12/27 05:53:45;;;;;;;0.63;0.63;;;2.30;97.30;1.20;96980.00;;;;5055963;28;20207;-56
2022/12/27 05:56:16;;;;;;;0.90;0.90;;;2.20;97.20;1.10;96974.00;;;;5056032;28;20689;-57
2022/12/27 05:58:44;;;;;;;0.80;0.80;;;2.20;97.00;1.10;96975.00;;;;5056172;28;20183;-57
2022/12/27 06:01:12;;;;;;;0.80;0.80;;;;;1.10;96974.00;;;;5055812;28;20199;-56
2022/12/27 06:03:41;;;;;;;0.80;0.80;;;2.20;96.50;1.10;96987.00;;;;5055943;28;20223;-57
2022/12/27 06:06:09;;;;;;;0.60;0.60;;;2.20;97.20;1.10;96982.00;;;;5055690;28;20220;-56
2022/12/27 06:08:37;;;;;;;0.67;0.67;;;2.20;97.20;1.20;96986.00;;;;5055653;28;20214;-56
2022/12/27 06:11:08;;;;;;;0.60;0.60;;;2.20;97.50;1.20;96990.00;;;;5055532;28;20192;-56
2022/12/27 06:13:37;;;;;;;0.93;0.93;;;2.20;97.20;1.20;96996.00;;;;5055502;28;20214;-56
2022/12/27 06:16:08;;;;;;;0.77;0.77;;;2.30;97.50;1.20;96993.00;;;;5055388;28;20705;-56
2022/12/27 06:18:37;;;;;;;0.60;0.60;;;2.20;97.20;1.20;96999.00;;;;5055435;28;20184;-56
2022/12/27 06:21:09;;;;;;;0.83;0.83;;;2.20;97.40;1.20;96998.00;;;;5055406;28;20196;-56
2022/12/27 06:23:39;;;;;;;0.87;0.87;;;2.20;97.70;1.10;96988.00;;;;5055340;28;20212;-56
2022/12/27 06:26:08;;;;;;;1.47;1.37;;;2.20;97.20;1.20;96990.00;;;;5055276;28;20191;-56
2022/12/27 06:28:35;;;;;;;0.60;0.60;;;2.20;97.20;1.20;96990.00;;;;5055775;28;20245;-55
2022/12/27 06:31:03;;;;;;;0.70;0.70;;;2.20;96.90;1.10;96986.00;;;;5055511;28;20198;-56
2022/12/27 06:33:31;;;;;;;0.80;0.80;;;2.20;97.10;1.10;96989.00;;;;5055087;28;20207;-56
2022/12/27 06:35:58;;;;;;;0.80;0.80;;;2.20;97.20;1.20;96991.00;;;;5055507;28;20272;-56
2022/12/27 06:38:27;;;;;;;0.60;0.60;;;2.20;97.50;1.20;96988.00;;;;5054368;28;20195;-56
2022/12/27 06:41:00;;;;;;;0.80;0.80;;;2.20;97.20;1.20;97001.00;;;;5055041;28;20192;-56
2022/12/27 06:43:27;;;;;;;0.70;0.70;;;2.20;97.30;1.20;97010.00;;;;5054865;28;20216;-56
2022/12/27 06:45:57;;;;;;;0.77;0.77;;;2.30;97.40;1.20;96999.00;;;;5054955;28;20662;-56
2022/12/27 06:48:25;;;;;;;0.60;0.60;;;2.30;96.90;1.30;97009.00;;;;5054916;28;20191;-56
2022/12/27 06:50:52;;;;;;;1.27;1.10;;;2.30;96.40;1.20;97012.00;;;;5054811;28;20197;-56
2022/12/27 06:53:19;;;;;;;4.73;1.07;;;2.20;96.20;1.10;97015.00;;;;5055004;28;20575;-56
2022/12/27 06:55:48;;;;;;;0.70;0.70;;;2.20;96.50;1.00;97004.00;;;;5054642;28;20226;-56
2022/12/27 06:58:15;;;;;;;0.73;0.73;;;2.10;96.60;1.10;97006.00;;;;5054757;28;20195;-56
2022/12/27 07:00:42;;;;;;;0.70;0.70;;;2.10;97.30;1.10;97005.00;;;;5054641;28;20199;-56
2022/12/27 07:03:09;;;;;;;0.60;0.60;;;2.10;96.70;1.10;97029.00;;;;5054693;28;20206;-56
2022/12/27 07:05:37;;;;;;;0.83;0.83;;;2.10;96.40;0.80;97014.00;;;;5054931;28;20255;-56
2022/12/27 07:08:05;;;;;;;0.60;0.60;;;1.90;96.90;0.70;97019.00;;;;5054555;28;20278;-56
2022/12/27 07:10:32;;;;;;;0.60;0.60;;;1.90;97.90;0.80;97014.00;;;;5054541;28;20218;-56
2022/12/27 07:13:00;;;;;;;1.00;1.00;;;1.80;97.80;0.90;97011.00;;;;5054686;28;20702;-56
2022/12/27 07:15:27;;;;;;;0.70;0.70;;;1.90;98.60;0.90;97015.00;;;;5054787;28;20229;-56
2022/12/27 07:17:54;;;;;;;0.67;0.67;;;1.90;99.20;0.90;97031.00;;;;5054645;28;20199;-56
2022/12/27 07:20:21;;;;;;;0.70;0.70;;;1.90;99.30;1.00;97036.00;;;;5054255;28;20199;-56
2022/12/27 07:22:48;;;;;;;0.60;0.60;;;2.00;99.40;1.00;97032.00;;;;5054439;28;20237;-55
2022/12/27 07:25:16;;;;;;;0.73;0.73;;;2.00;98.80;1.00;97027.00;;;;5054313;28;20202;-55
2022/12/27 07:27:43;;;;;;;0.90;0.90;;;2.10;99.00;1.20;97034.00;;;;5054350;28;20195;-58
2022/12/27 07:30:12;;;;;;;0.53;0.53;;;2.20;98.10;1.20;97026.00;;;;5054089;28;20500;-56
2022/12/27 07:32:39;;;;;;;0.80;0.80;;;2.20;98.80;1.30;97030.00;;;;5053909;28;20242;-55
2022/12/27 07:35:06;;;;;;;1.03;0.93;;;2.30;98.30;1.10;97029.00;;;;5053818;28;20631;-56
2022/12/27 07:37:33;;;;;;;1.00;1.00;;;2.10;96.70;1.00;97042.00;;;;5054089;28;20744;-55
2022/12/27 07:40:00;;;;;;;0.77;0.77;;;2.00;97.30;1.10;97033.00;;;;5053840;28;20206;-56
2022/12/27 07:42:29;;;;;;;0.60;0.60;;;2.10;97.90;1.20;97034.00;;;;5053830;28;20215;-56
2022/12/27 07:44:56;;;;;;;0.80;0.80;;;2.20;98.10;1.30;97030.00;;;;5035825;28;20277;-56
2022/12/27 07:47:24;;;;;;;5.80;1.10;;;2.30;97.50;1.30;97038.00;;;;5054401;28;20195;-55
2022/12/27 07:49:51;;;;;;;0.60;0.60;;;2.30;96.90;1.20;97041.00;;;;5052690;28;20199;-56
2022/12/27 07:52:18;;;;;;;0.90;0.90;;;2.30;96.40;1.20;97042.00;;;;5053502;28;20212;-55
2022/12/27 07:54:45;;;;;;;0.60;0.60;;;2.20;96.40;1.20;97046.00;;;;5053976;28;20193;-58
2022/12/27 07:57:12;;;;;;;0.80;0.80;;;2.20;96.20;1.30;97036.00;;;;5053536;28;20676;-59
2022/12/27 07:59:39;;;;;;;1.37;1.27;;;2.30;96.60;1.10;97042.00;;;;5053713;28;20195;-60
2022/12/27 08:02:08;;;;;;;0.60;0.60;;;2.10;96.50;1.10;97022.00;;;;5053860;28;20195;-57
2022/12/27 08:04:38;;;;;;;7.30;1.37;;;2.20;96.70;1.20;97046.00;;;;5053401;28;20285;-57
2022/12/27 08:07:11;;;;;;;0.60;0.60;;;2.20;97.00;1.30;97043.00;;;;5053365;28;20195;-57
2022/12/27 08:09:41;;;;;;;0.60;0.60;;;2.30;97.20;1.50;97044.00;;;;5053563;28;20176;-57
2022/12/27 08:12:09;;;;;;;0.73;0.73;;;2.40;97.20;1.60;97045.00;;;;5053267;28;20195;-57
2022/12/27 08:14:36;;;;;;;1.00;1.00;;;2.50;96.60;1.70;97041.00;;;;5053542;28;20195;-57
2022/12/27 08:17:07;;;;;;;0.70;0.70;;;2.60;96.10;1.80;97033.00;;;;5053172;28;20216;-57
2022/12/27 08:19:35;;;;;;;0.70;0.70;;;2.80;95.40;1.80;97035.00;;;;5053329;28;20187;-55
2022/12/27 08:22:04;;;;;;;0.70;0.70;;;2.70;94.60;1.40;97026.00;;;;5053059;28;20666;-57
2022/12/27 08:24:31;;;;;;;0.93;0.93;;;2.40;94.80;1.30;97031.00;;;;5053125;28;20191;-55
2022/12/27 08:26:58;;;;;;;0.60;0.60;;;2.40;94.90;1.40;97033.00;;;;5053074;28;20274;-57
2022/12/27 08:29:25;;;;;;;0.70;0.70;;;2.40;95.60;1.50;97045.00;;;;5053213;28;20543;-55
2022/12/27 08:31:52;;;;;;;2.53;1.53;;;2.50;96.10;1.70;97030.00;;;;5052996;28;20202;-56
2022/12/27 08:34:19;;;;;;;0.70;0.70;;;2.60;96.30;1.90;97041.00;;;;5052944;28;20287;-55
2022/12/27 08:36:50;;;;;;;0.60;0.60;;;2.70;95.20;1.90;97036.00;;;;5052833;28;20257;-55
2022/12/27 08:39:17;;;;;;;0.70;0.70;;;;;2.10;97047.00;;;;5052968;28;20283;-56
2022/12/27 08:41:44;;;;;;;0.50;0.50;;;2.90;94.10;2.30;97039.00;;;;5052995;28;20249;-55
2022/12/27 08:44:12;;;;;;;0.80;0.80;;;3.10;94.90;2.50;97040.00;;;;5052853;28;20730;-56
2022/12/27 08:46:39;;;;;;;0.60;0.60;;;3.30;94.40;2.70;97036.00;;;;5052921;28;20195;-55
2022/12/27 08:49:07;;;;;;;0.57;0.57;;;3.60;93.80;2.70;97045.00;;;;5053632;28;20638;-55
2022/12/27 08:51:34;;;;;;;0.70;0.70;;;3.60;93.50;2.90;97055.00;;;;5053672;28;20196;-55
2022/12/27 08:54:02;;;;;;;0.90;0.90;;;3.70;92.70;3.00;97049.00;;;;5053093;28;20262;-56
2022/12/27 08:56:29;;;;;;;0.60;0.60;;;;;2.80;97056.00;;;;5052751;28;20643;-58
2022/12/27 08:58:57;;;;;;;1.07;1.07;;;;;2.50;97055.00;;;;5053089;28;20196;-57
2022/12/27 09:01:24;;;;;;;0.63;0.63;;;3.50;89.20;2.60;97043.00;;;;5055721;28;20203;-55
2022/12/27 09:03:51;;;;;;;0.80;0.80;;;3.50;90.50;2.60;97049.00;;;;5056852;28;20212;-57
2022/12/27 09:06:21;;;;;;;0.60;0.60;;;3.50;91.50;3.00;97056.00;;;;5056765;28;20188;-56
2022/12/27 09:08:50;;;;;;;0.80;0.80;;;3.80;91.50;3.10;97053.00;;;;5056646;28;20184;-58
2022/12/27 09:11:22;;;;;;;0.80;0.80;;;3.90;91.00;3.40;97060.00;;;;5056659;28;20663;-55
2022/12/27 09:13:49;;;;;;;0.83;0.83;;;4.20;89.80;3.70;97057.00;;;;5056595;28;20216;-58
2022/12/27 09:16:20;;;;;;;0.70;0.70;;;4.50;88.60;3.80;97061.00;;;;5056558;28;20266;-55
2022/12/27 09:18:50;;;;;;;1.60;1.13;;;4.60;87.10;4.00;97057.00;;;;5056727;28;20184;-55
2022/12/27 09:21:19;;;;;;;0.63;0.63;;;;;3.90;97065.00;;;;5056589;28;20192;-57
2022/12/27 09:23:46;;;;;;;1.00;1.00;;;;;4.00;97070.00;;;;5056287;28;20270;-55
2022/12/27 09:26:15;;;;;;;1.27;1.17;;;4.80;83.30;4.10;97065.00;;;;5056369;28;20192;-57
2022/12/27 09:28:45;;;;;;;0.83;0.83;;;4.80;83.80;4.00;97068.00;;;;5056339;28;20200;-56
2022/12/27 09:31:14;;;;;;;0.93;0.93;;;4.80;83.30;4.20;97069.00;;;;5056306;28;20192;-55
2022/12/27 09:33:41;;;;;;;0.67;0.67;;;4.90;83.70;4.30;97061.00;;;;5056283;28;20207;-55
2022/12/27 09:36:12;;;;;;;0.90;0.90;;;5.10;82.80;4.50;97055.00;;;;5056160;28;20265;-57
2022/12/27 09:38:40;;;;;;;1.17;1.17;;;5.20;82.20;4.40;97058.00;;;;5056225;28;20721;-56
2022/12/27 09:41:20;;;;;;;0.60;0.60;;;5.30;77.70;4.10;97064.00;;;;5056419;28;20203;-57
2022/12/27 09:44:01;;;;;;;0.60;0.60;;;5.00;80.90;4.50;97058.00;;;;5056064;28;20537;-58
2022/12/27 09:46:41;;;;;;;1.00;1.00;;;5.20;80.30;4.70;97065.00;;;;5056308;28;20180;-56
2022/12/27 09:49:11;;;;;;;0.80;0.80;;;5.40;79.50;5.00;97056.00;;;;5038584;28;20192;-56
2022/12/27 09:51:47;;;;;;;0.70;0.70;;;5.60;77.90;4.80;97074.00;;;;5056280;28;20172;-55
2022/12/27 09:54:19;;;;;;;0.70;0.70;;;5.50;77.90;4.60;97054.00;;;;5055967;28;20219;-58
2022/12/27 09:56:48;;;;;;;1.00;1.00;;;5.50;77.50;4.70;97066.00;;;;5056100;28;20547;-57
2022/12/27 09:59:25;;;;;;;0.80;0.80;;;5.50;76.70;4.50;97050.00;;;;5055853;28;20272;-55
2022/12/27 10:01:52;;;;;;;0.60;0.60;;;5.50;75.80;4.40;97054.00;;;;5055799;28;20183;-55
2022/12/27 10:04:19;;;;;;;1.57;0.90;;;5.40;78.10;4.60;97048.00;;;;5055725;28;20212;-57
2022/12/27 10:07:05;;;;;;;1.20;1.00;;;5.40;76.00;4.60;97050.00;;;;5055743;28;20192;-55
2022/12/27 10:09:50;;;;;;;2.27;1.27;;;5.40;77.50;4.90;97047.00;;;;5055916;28;20245;-55
2022/12/27 10:12:44;;;;;;;0.60;0.60;;;5.60;76.80;4.70;97052.00;;;;5054781;28;20222;-56
2022/12/27 10:15:28;;;;;;;0.83;0.83;;;5.50;77.70;4.80;97048.00;;;;5055840;28;20191;-55
2022/12/27 10:18:09;;;;;;;0.50;0.50;;;5.50;78.30;5.10;97042.00;;;;5055773;28;20627;-56
2022/12/27 10:20:58;;;;;;;0.70;0.70;;;5.80;76.50;4.90;97051.00;;;;5055670;28;20203;-55
2022/12/27 10:23:31;;;;;;;0.60;0.60;;;5.70;76.90;5.10;97033.00;;;;5055347;28;20279;-55
2022/12/27 10:26:01;;;;;;;0.60;0.60;;;5.90;75.20;5.20;97037.00;;;;5055580;28;20618;-56
2022/12/27 10:28:39;;;;;;;1.00;1.00;;;5.90;74.30;5.40;97018.00;;;;5055127;28;20672;-56
2022/12/27 10:31:16;;;;;;;0.60;0.60;;;6.10;75.20;5.70;97036.00;;;;5055154;28;20642;-57
2022/12/27 10:33:44;;;;;;;0.60;0.60;;;6.40;73.00;5.80;97033.00;;;;5055316;28;20217;-56
2022/12/27 10:36:15;;;;;;;0.57;0.57;;;6.50;74.10;6.20;97023.00;;;;5055016;28;20714;-56
2022/12/27 10:38:42;;;;;;;0.73;0.73;;;6.80;74.40;6.10;97036.00;;;;5055066;28;20181;-56
2022/12/27 10:41:29;;;;;;;0.60;0.60;;;6.90;71.60;5.90;97036.00;;;;5055483;28;20202;-56
2022/12/27 10:43:56;;;;;;;1.13;1.13;;;6.70;71.00;6.20;97033.00;;;;5054788;28;20223;-56
2022/12/27 10:46:28;;;;;;;0.60;0.60;;;7.00;72.00;5.40;97040.00;;;;5054835;28;20207;-56
2022/12/27 10:48:58;;;;;;;0.80;0.80;;;6.50;69.60;6.10;97030.00;;;;5055053;28;20638;-56
2022/12/27 10:51:33;;;;;;;0.60;0.60;;;6.70;74.50;6.10;97040.00;;;;5054971;28;20616;-56
2022/12/27 10:54:03;;;;;;;0.70;0.70;;;6.80;73.70;6.60;97026.00;;;;5036819;28;20269;-56
2022/12/27 10:56:34;;;;;;;0.70;0.70;;;7.20;72.80;6.70;97042.00;;;;5055164;28;20204;-56
2022/12/27 10:59:15;;;;;;;0.60;0.60;;;7.30;69.30;6.30;97036.00;;;;5054995;28;20550;-55
2022/12/27 11:01:45;;;;;;;0.80;0.80;;;7.10;71.70;6.40;97039.00;;;;5054830;28;20273;-55
2022/12/27 11:04:17;;;;;;;13.77;1.00;;;7.10;71.70;6.10;97020.00;;;;5054764;28;20215;-56
2022/12/27 11:06:46;;;;;;;0.70;0.70;;;7.00;70.10;6.60;97015.00;;;;5055113;28;20179;-55
2022/12/27 11:09:26;;;;;;;0.77;0.77;;;7.20;70.50;6.80;97020.00;;;;5054528;28;20199;-56
2022/12/27 11:12:15;;;;;;;0.70;0.70;;;7.50;67.50;6.50;96988.00;;;;5054496;28;20176;-55
2022/12/27 11:14:56;;;;;;;0.90;0.90;;;7.20;68.00;8.00;97008.00;;;;5054395;28;20192;-56
2022/12/27 11:17:29;;;;;;;0.70;0.70;;;8.20;65.40;7.40;97004.00;;;;5054333;28;20206;-56
2022/12/27 11:20:00;;;;;;;0.57;0.57;;;8.00;61.80;7.70;97006.00;;;;5054551;28;20211;-56
2022/12/27 11:22:27;;;;;;;4.17;0.80;;;8.40;59.70;8.60;97005.00;;;;5054431;28;20204;-56
2022/12/27 11:24:58;;;;;;;0.60;0.60;;;8.80;58.90;9.80;97001.00;;;;5053964;28;20195;-56
2022/12/27 11:27:29;;;;;;;2.93;1.30;;;9.70;56.60;9.80;97002.00;;;;5054123;28;20238;-55
2022/12/27 11:29:59;;;;;;;1.50;1.10;;;10.20;49.80;9.70;96991.00;;;;5054269;28;20185;-56
2022/12/27 11:32:28;;;;;;;1.40;0.70;;;10.20;50.80;10.50;97009.00;;;;5054501;28;20215;-56
2022/12/27 11:34:56;;;;;;;0.50;0.50;;;10.70;47.30;9.20;97002.00;;;;5053990;28;20196;-55
2022/12/27 11:37:27;;;;;;;0.50;0.50;;;9.90;50.40;9.90;96981.00;;;;5053936;28;20599;-55
2022/12/27 11:40:10;;;;;;;0.43;0.43;;;10.20;52.50;11.30;97028.00;;;;5054011;28;20204;-56
2022/12/27 11:42:44;;;;;;;0.60;0.60;;;11.10;43.10;9.30;97006.00;;;;5054230;28;20211;-56
2022/12/27 11:45:17;;;;;;;0.57;0.57;;;;;9.10;97027.00;;;;5053879;28;20188;-56
2022/12/27 11:47:51;;;;;;;0.70;0.70;;;9.90;48.90;10.00;97023.00;;;;5054135;28;20188;-56
2022/12/27 11:50:42;;;;;;;0.70;0.70;;;10.30;49.50;10.00;96993.00;;;;5054407;28;20176;-56
2022/12/27 11:53:36;;;;;;;0.60;0.60;;;10.50;49.30;10.10;96993.00;;;;5054175;28;20301;-56
2022/12/27 11:56:19;;;;;;;0.50;0.50;;;10.50;46.10;9.20;97022.00;;;;5053573;28;20184;-56
2022/12/27 11:59:23;;;;;;;0.60;0.60;;;10.00;47.50;8.30;97030.00;;;;5053931;28;20210;-56
2022/12/27 12:02:57;;;;;;;0.60;0.60;;;9.40;49.80;8.30;97033.00;;;;5053575;28;20184;-56
2022/12/27 12:06:03;;;;;;;0.47;0.47;;;9.10;52.00;8.10;97025.00;;;;4992458;28;20657;-56
2022/12/27 12:09:02;;;;;;;0.70;0.70;;;9.00;52.70;7.90;97019.00;;;;5053684;28;20176;-55
2022/12/27 12:11:52;;;;;;;0.70;0.70;;;8.70;54.60;8.60;96963.00;;;;5053645;28;20181;-56
2022/12/27 12:15:06;;;;;;;0.70;0.70;;;9.10;55.60;10.50;96975.00;;;;5053336;28;20204;-56
2022/12/27 12:18:03;;;;;;;0.70;0.70;;;10.30;50.40;10.70;96968.00;;;;5030843;28;20318;-55
2022/12/27 12:21:22;;;;;;;0.60;0.60;;;;;13.60;96968.00;;;;5053342;28;20184;-56
2022/12/27 12:24:26;;;;;;;0.50;0.50;;;15.40;33.80;15.60;96991.00;;;;4992047;28;20225;-56
2022/12/27 12:27:17;;;;;;;0.30;0.30;;;15.30;32.20;12.00;96970.00;;;;5053372;28;20196;-56
2022/12/27 12:30:22;;;;;;;3.03;0.87;;;13.30;34.70;12.60;96969.00;;;;5053465;28;20185;-56
2022/12/27 12:33:41;;;;;;;0.70;0.70;;;12.90;38.00;13.00;96981.00;;;;5053171;28;20717;-56
2022/12/27 12:36:35;;;;;;;0.60;0.60;;;13.90;33.80;12.40;96998.00;;;;5052679;28;20168;-56
2022/12/27 12:39:15;;;;;;;0.93;0.93;;;13.40;35.30;12.80;96997.00;;;;5053011;28;20188;-56
2022/12/27 12:42:14;;;;;;;0.57;0.57;;;13.40;35.50;13.70;96974.00;;;;5053351;28;20187;-56
2022/12/27 12:45:15;;;;;;;0.50;0.50;;;13.90;34.90;13.20;96968.00;;;;5053205;28;20647;-56
2022/12/27 12:48:05;;;;;;;1.00;1.00;;;14.70;34.10;14.80;96972.00;;;;5049696;28;20198;-56
2022/12/27 12:50:55;;;;;;;0.50;0.50;;;14.80;34.20;13.50;97014.00;;;;5053369;28;20184;-56
2022/12/27 12:53:45;;;;;;;0.40;0.40;;;14.10;33.10;12.10;96978.00;;;;5052937;28;20215;-56
2022/12/27 12:56:49;;;;;;;0.43;0.43;;;13.20;36.40;10.40;97013.00;;;;5052952;28;20555;-56
2022/12/27 12:59:38;;;;;;;0.60;0.60;;;11.90;37.90;9.90;97006.00;;;;5052978;28;20534;-56
2022/12/27 13:02:56;;;;;;;0.50;0.50;;;11.10;43.60;11.90;96993.00;;;;5052726;28;20208;-56
2022/12/27 13:05:38;;;;;;;0.50;0.50;;;12.10;43.50;9.60;97006.00;;;;5037560;28;20231;-55
2022/12/27 13:08:15;;;;;;;0.60;0.60;;;10.40;44.00;10.30;97028.00;;;;5052747;28;20183;-56
2022/12/27 13:11:25;;;;;;;0.53;0.53;;;11.00;43.50;9.20;97025.00;;;;5052802;28;20624;-56
2022/12/27 13:14:21;;;;;;;0.50;0.50;;;10.50;43.60;8.80;97021.00;;;;5053015;28;20230;-56
2022/12/27 13:17:01;;;;;;;0.77;0.77;;;8.90;48.80;7.90;97032.00;;;;5052782;28;20679;-55